sensor_id;sensor_type;location;lat;lon;timestamp;temperature;humidity
8565;DHT22;4320;51.498;6.556;2022-12-07T00:00:38;6.50;1.00
8565;DHT22;4320;51.498;6.556;2022-12-07T00:03:04;6.50;1.00
8565;DHT22;4320;51.498;6.556;2022-12-07T00:05:30;6.40;1.00
8565;DHT22;4320;51.498;6.556;2022-12-07T00:07:55;6.40;1.00
8565;DHT22;4320;51.498;6.556;2022-12-07T00:10:21;6.40;1.00
8565;DHT22;4320;51.498;6.556;2022-12-07T00:12:47;6.40;1.00
8565;DHT22;4320;51.498;6.556;2022-12-07T00:15:12;6.40;1.00
8565;DHT22;4320;51.498;6.556;2022-12-07T00:17:38;6.30;1.00
8565;DHT22;4320;51.498;6.556;2022-12-07T00:20:04;6.30;1.00
8565;DHT22;4320;51.498;6.556;2022-12-07T00:22:30;6.30;1.00
8565;DHT22;4320;51.498;6.556;2022-12-07T00:24:55;6.40;1.00
8565;DHT22;4320;51.498;6.556;2022-12-07T00:27:21;6.40;1.00
8565;DHT22;4320;51.498;6.556;2022-12-07T00:29:46;6.40;1.00
8565;DHT22;4320;51.498;6.556;2022-12-07T00:32:12;6.40;1.00
8565;DHT22;4320;51.498;6.556;2022-12-07T00:34:38;6.40;1.00
8565;DHT22;4320;51.498;6.556;2022-12-07T00:37:03;6.30;1.00
8565;DHT22;4320;51.498;6.556;2022-12-07T00:39:29;6.30;1.00
8565;DHT22;4320;51.498;6.556;2022-12-07T00:41:55;6.30;1.00
8565;DHT22;4320;51.498;6.556;2022-12-07T00:44:20;6.30;1.00
8565;DHT22;4320;51.498;6.556;2022-12-07T00:46:46;6.30;1.00
8565;DHT22;4320;51.498;6.556;2022-12-07T00:49:11;6.30;1.00
8565;DHT22;4320;51.498;6.556;2022-12-07T00:51:37;6.30;1.00
8565;DHT22;4320;51.498;6.556;2022-12-07T00:54:03;6.30;1.00
8565;DHT22;4320;51.498;6.556;2022-12-07T00:56:29;6.30;1.00
8565;DHT22;4320;51.498;6.556;2022-12-07T01:01:22;6.10;1.00
8565;DHT22;4320;51.498;6.556;2022-12-07T01:03:48;6.10;1.00
8565;DHT22;4320;51.498;6.556;2022-12-07T01:06:18;6.20;1.00
8565;DHT22;4320;51.498;6.556;2022-12-07T01:08:44;6.20;1.00
8565;DHT22;4320;51.498;6.556;2022-12-07T01:11:14;6.20;1.00
8565;DHT22;4320;51.498;6.556;2022-12-07T01:13:40;6.20;1.00
8565;DHT22;4320;51.498;6.556;2022-12-07T01:16:07;6.10;1.00
8565;DHT22;4320;51.498;6.556;2022-12-07T01:18:35;6.10;1.00
8565;DHT22;4320;51.498;6.556;2022-12-07T01:21:09;6.10;1.00
8565;DHT22;4320;51.498;6.556;2022-12-07T01:23:35;6.00;1.00
8565;DHT22;4320;51.498;6.556;2022-12-07T01:26:04;5.90;1.00
8565;DHT22;4320;51.498;6.556;2022-12-07T01:28:30;5.90;1.00
8565;DHT22;4320;51.498;6.556;2022-12-07T01:31:18;5.90;1.00
8565;DHT22;4320;51.498;6.556;2022-12-07T01:33:45;5.90;1.00
8565;DHT22;4320;51.498;6.556;2022-12-07T01:36:22;5.90;1.00
8565;DHT22;4320;51.498;6.556;2022-12-07T01:38:50;5.90;1.00
8565;DHT22;4320;51.498;6.556;2022-12-07T01:41:19;5.90;1.00
8565;DHT22;4320;51.498;6.556;2022-12-07T01:44:18;5.90;1.00
8565;DHT22;4320;51.498;6.556;2022-12-07T01:47:04;5.80;1.00
8565;DHT22;4320;51.498;6.556;2022-12-07T01:54:43;5.80;1.00
8565;DHT22;4320;51.498;6.556;2022-12-07T01:57:10;5.80;1.00
8565;DHT22;4320;51.498;6.556;2022-12-07T01:59:37;5.70;1.00
8565;DHT22;4320;51.498;6.556;2022-12-07T02:02:10;5.70;1.00
8565;DHT22;4320;51.498;6.556;2022-12-07T02:04:37;5.70;1.00
8565;DHT22;4320;51.498;6.556;2022-12-07T02:07:03;5.70;1.00
8565;DHT22;4320;51.498;6.556;2022-12-07T02:09:29;5.70;1.00
8565;DHT22;4320;51.498;6.556;2022-12-07T02:11:55;5.70;1.00
8565;DHT22;4320;51.498;6.556;2022-12-07T02:14:21;5.70;1.00
8565;DHT22;4320;51.498;6.556;2022-12-07T02:27:56;5.60;1.00
8565;DHT22;4320;51.498;6.556;2022-12-07T02:30:31;5.60;1.00
8565;DHT22;4320;51.498;6.556;2022-12-07T02:33:17;5.60;1.00
8565;DHT22;4320;51.498;6.556;2022-12-07T02:35:51;5.60;1.00
8565;DHT22;4320;51.498;6.556;2022-12-07T02:40:53;5.50;1.00
8565;DHT22;4320;51.498;6.556;2022-12-07T02:43:24;5.50;1.00
8565;DHT22;4320;51.498;6.556;2022-12-07T02:45:58;5.40;1.00
8565;DHT22;4320;51.498;6.556;2022-12-07T02:48:27;5.40;1.00
8565;DHT22;4320;51.498;6.556;2022-12-07T02:50:54;5.40;1.00
8565;DHT22;4320;51.498;6.556;2022-12-07T02:53:33;5.30;1.00
8565;DHT22;4320;51.498;6.556;2022-12-07T02:56:12;5.30;1.00
8565;DHT22;4320;51.498;6.556;2022-12-07T02:58:55;5.30;1.00
8565;DHT22;4320;51.498;6.556;2022-12-07T03:01:56;5.30;1.00
8565;DHT22;4320;51.498;6.556;2022-12-07T03:04:57;5.30;1.00
8565;DHT22;4320;51.498;6.556;2022-12-07T03:18:48;5.20;1.00
8565;DHT22;4320;51.498;6.556;2022-12-07T03:21:19;5.20;1.00
8565;DHT22;4320;51.498;6.556;2022-12-07T03:23:49;5.10;1.00
8565;DHT22;4320;51.498;6.556;2022-12-07T03:26:18;5.00;1.00
8565;DHT22;4320;51.498;6.556;2022-12-07T03:28:50;5.00;1.00
8565;DHT22;4320;51.498;6.556;2022-12-07T03:31:26;5.00;1.00
8565;DHT22;4320;51.498;6.556;2022-12-07T03:34:11;4.90;1.00
8565;DHT22;4320;51.498;6.556;2022-12-07T03:39:27;5.00;1.00
8565;DHT22;4320;51.498;6.556;2022-12-07T03:41:56;5.10;1.00
8565;DHT22;4320;51.498;6.556;2022-12-07T03:44:22;5.10;1.00
8565;DHT22;4320;51.498;6.556;2022-12-07T03:51:48;5.10;1.00
8565;DHT22;4320;51.498;6.556;2022-12-07T03:54:41;5.10;1.00
8565;DHT22;4320;51.498;6.556;2022-12-07T03:57:10;5.10;1.00
8565;DHT22;4320;51.498;6.556;2022-12-07T03:59:38;5.10;1.00
8565;DHT22;4320;51.498;6.556;2022-12-07T04:02:06;5.10;1.00
8565;DHT22;4320;51.498;6.556;2022-12-07T04:04:33;5.10;1.00
8565;DHT22;4320;51.498;6.556;2022-12-07T04:06:59;5.20;1.00
8565;DHT22;4320;51.498;6.556;2022-12-07T04:09:25;5.20;1.00
8565;DHT22;4320;51.498;6.556;2022-12-07T04:11:51;5.10;1.00
8565;DHT22;4320;51.498;6.556;2022-12-07T04:14:17;5.20;1.00
8565;DHT22;4320;51.498;6.556;2022-12-07T04:16:50;5.10;1.00
8565;DHT22;4320;51.498;6.556;2022-12-07T04:19:18;5.10;1.00
8565;DHT22;4320;51.498;6.556;2022-12-07T04:21:44;5.00;1.00
8565;DHT22;4320;51.498;6.556;2022-12-07T04:24:12;4.90;1.00
8565;DHT22;4320;51.498;6.556;2022-12-07T04:26:38;4.90;1.00
8565;DHT22;4320;51.498;6.556;2022-12-07T04:29:04;4.80;1.00
8565;DHT22;4320;51.498;6.556;2022-12-07T04:31:30;4.80;1.00
8565;DHT22;4320;51.498;6.556;2022-12-07T04:33:55;4.80;1.00
8565;DHT22;4320;51.498;6.556;2022-12-07T04:36:21;4.80;1.00
8565;DHT22;4320;51.498;6.556;2022-12-07T04:38:47;4.80;1.00
8565;DHT22;4320;51.498;6.556;2022-12-07T04:41:13;4.80;1.00
8565;DHT22;4320;51.498;6.556;2022-12-07T04:43:38;4.80;1.00
8565;DHT22;4320;51.498;6.556;2022-12-07T04:46:04;4.80;1.00
8565;DHT22;4320;51.498;6.556;2022-12-07T04:48:30;4.80;1.00
8565;DHT22;4320;51.498;6.556;2022-12-07T04:50:56;4.80;1.00
8565;DHT22;4320;51.498;6.556;2022-12-07T04:53:22;4.80;1.00
8565;DHT22;4320;51.498;6.556;2022-12-07T04:55:47;4.80;1.00
8565;DHT22;4320;51.498;6.556;2022-12-07T04:58:13;4.80;1.00
8565;DHT22;4320;51.498;6.556;2022-12-07T05:00:39;4.80;1.00
8565;DHT22;4320;51.498;6.556;2022-12-07T05:03:05;4.90;1.00
8565;DHT22;4320;51.498;6.556;2022-12-07T05:05:31;4.80;1.00
8565;DHT22;4320;51.498;6.556;2022-12-07T05:07:56;4.90;1.00
8565;DHT22;4320;51.498;6.556;2022-12-07T05:10:22;4.90;1.00
8565;DHT22;4320;51.498;6.556;2022-12-07T05:12:48;5.00;1.00
8565;DHT22;4320;51.498;6.556;2022-12-07T05:15:14;5.10;1.00
8565;DHT22;4320;51.498;6.556;2022-12-07T05:17:41;5.10;1.00
8565;DHT22;4320;51.498;6.556;2022-12-07T05:20:08;5.10;1.00
8565;DHT22;4320;51.498;6.556;2022-12-07T05:22:34;5.10;1.00
8565;DHT22;4320;51.498;6.556;2022-12-07T05:24:59;5.10;1.00
8565;DHT22;4320;51.498;6.556;2022-12-07T05:27:25;5.10;1.00
8565;DHT22;4320;51.498;6.556;2022-12-07T05:29:51;5.10;1.00
8565;DHT22;4320;51.498;6.556;2022-12-07T05:32:17;5.20;1.00
8565;DHT22;4320;51.498;6.556;2022-12-07T05:34:42;5.20;1.00
8565;DHT22;4320;51.498;6.556;2022-12-07T05:37:08;5.20;1.00
8565;DHT22;4320;51.498;6.556;2022-12-07T05:39:34;5.20;1.00
8565;DHT22;4320;51.498;6.556;2022-12-07T05:41:59;5.20;1.00
8565;DHT22;4320;51.498;6.556;2022-12-07T05:44:41;5.30;1.00
8565;DHT22;4320;51.498;6.556;2022-12-07T05:47:07;5.30;1.00
8565;DHT22;4320;51.498;6.556;2022-12-07T05:49:33;5.30;1.00
8565;DHT22;4320;51.498;6.556;2022-12-07T05:51:59;5.30;1.00
8565;DHT22;4320;51.498;6.556;2022-12-07T05:54:25;5.20;1.00
8565;DHT22;4320;51.498;6.556;2022-12-07T05:56:50;5.20;1.00
8565;DHT22;4320;51.498;6.556;2022-12-07T05:59:16;5.20;1.00
8565;DHT22;4320;51.498;6.556;2022-12-07T06:01:49;5.10;1.00
8565;DHT22;4320;51.498;6.556;2022-12-07T06:04:14;5.10;1.00
8565;DHT22;4320;51.498;6.556;2022-12-07T06:06:40;5.10;1.00
8565;DHT22;4320;51.498;6.556;2022-12-07T06:09:06;5.00;1.00
8565;DHT22;4320;51.498;6.556;2022-12-07T06:11:32;5.00;1.00
8565;DHT22;4320;51.498;6.556;2022-12-07T06:14:16;4.90;1.00
8565;DHT22;4320;51.498;6.556;2022-12-07T06:16:41;4.90;1.00
8565;DHT22;4320;51.498;6.556;2022-12-07T06:19:07;5.00;1.00
8565;DHT22;4320;51.498;6.556;2022-12-07T06:21:33;4.90;1.00
8565;DHT22;4320;51.498;6.556;2022-12-07T06:23:58;5.00;1.00
8565;DHT22;4320;51.498;6.556;2022-12-07T06:26:24;5.00;1.00
8565;DHT22;4320;51.498;6.556;2022-12-07T06:28:50;5.00;1.00
8565;DHT22;4320;51.498;6.556;2022-12-07T06:31:15;5.00;1.00
8565;DHT22;4320;51.498;6.556;2022-12-07T06:33:42;5.00;1.00
8565;DHT22;4320;51.498;6.556;2022-12-07T06:36:08;5.00;1.00
8565;DHT22;4320;51.498;6.556;2022-12-07T06:38:33;5.00;1.00
8565;DHT22;4320;51.498;6.556;2022-12-07T06:40:59;5.00;1.00
8565;DHT22;4320;51.498;6.556;2022-12-07T06:43:24;5.00;1.00
8565;DHT22;4320;51.498;6.556;2022-12-07T06:45:50;5.00;1.00
8565;DHT22;4320;51.498;6.556;2022-12-07T06:48:16;5.00;1.00
8565;DHT22;4320;51.498;6.556;2022-12-07T06:50:44;4.90;1.00
8565;DHT22;4320;51.498;6.556;2022-12-07T06:53:10;4.90;1.00
8565;DHT22;4320;51.498;6.556;2022-12-07T06:55:36;4.90;1.00
8565;DHT22;4320;51.498;6.556;2022-12-07T06:58:01;5.00;1.00
8565;DHT22;4320;51.498;6.556;2022-12-07T07:00:28;4.90;1.00
8565;DHT22;4320;51.498;6.556;2022-12-07T07:02:53;4.90;1.00
8565;DHT22;4320;51.498;6.556;2022-12-07T07:05:19;4.90;1.00
8565;DHT22;4320;51.498;6.556;2022-12-07T07:07:48;4.90;1.00
8565;DHT22;4320;51.498;6.556;2022-12-07T07:10:14;4.90;1.00
8565;DHT22;4320;51.498;6.556;2022-12-07T07:12:39;4.90;1.00
8565;DHT22;4320;51.498;6.556;2022-12-07T07:15:05;4.80;1.00
8565;DHT22;4320;51.498;6.556;2022-12-07T07:17:31;4.80;1.00
8565;DHT22;4320;51.498;6.556;2022-12-07T07:19:56;4.80;1.00
8565;DHT22;4320;51.498;6.556;2022-12-07T07:22:22;4.90;1.00
8565;DHT22;4320;51.498;6.556;2022-12-07T07:24:48;4.90;1.00
8565;DHT22;4320;51.498;6.556;2022-12-07T07:27:13;4.90;1.00
8565;DHT22;4320;51.498;6.556;2022-12-07T07:29:39;4.80;1.00
8565;DHT22;4320;51.498;6.556;2022-12-07T07:32:04;4.80;1.00
8565;DHT22;4320;51.498;6.556;2022-12-07T07:34:30;4.70;1.00
8565;DHT22;4320;51.498;6.556;2022-12-07T07:36:56;4.70;1.00
8565;DHT22;4320;51.498;6.556;2022-12-07T07:39:21;4.70;1.00
8565;DHT22;4320;51.498;6.556;2022-12-07T07:41:47;4.60;1.00
8565;DHT22;4320;51.498;6.556;2022-12-07T07:44:12;4.70;1.00
8565;DHT22;4320;51.498;6.556;2022-12-07T07:46:38;4.70;1.00
8565;DHT22;4320;51.498;6.556;2022-12-07T07:49:04;4.70;1.00
8565;DHT22;4320;51.498;6.556;2022-12-07T07:51:29;4.60;1.00
8565;DHT22;4320;51.498;6.556;2022-12-07T07:53:55;4.70;1.00
8565;DHT22;4320;51.498;6.556;2022-12-07T07:56:20;4.80;1.00
8565;DHT22;4320;51.498;6.556;2022-12-07T07:58:46;4.80;1.00
8565;DHT22;4320;51.498;6.556;2022-12-07T08:01:12;4.80;1.00
8565;DHT22;4320;51.498;6.556;2022-12-07T08:03:39;4.80;1.00
8565;DHT22;4320;51.498;6.556;2022-12-07T08:06:05;4.80;1.00
8565;DHT22;4320;51.498;6.556;2022-12-07T08:08:32;4.80;1.00
8565;DHT22;4320;51.498;6.556;2022-12-07T08:10:57;4.80;1.00
8565;DHT22;4320;51.498;6.556;2022-12-07T08:13:26;4.80;1.00
8565;DHT22;4320;51.498;6.556;2022-12-07T08:15:52;4.80;1.00
8565;DHT22;4320;51.498;6.556;2022-12-07T08:18:18;4.90;1.00
8565;DHT22;4320;51.498;6.556;2022-12-07T08:20:43;5.00;1.00
8565;DHT22;4320;51.498;6.556;2022-12-07T08:23:09;5.00;1.00
8565;DHT22;4320;51.498;6.556;2022-12-07T08:25:36;5.10;1.00
8565;DHT22;4320;51.498;6.556;2022-12-07T08:28:02;5.20;1.00
8565;DHT22;4320;51.498;6.556;2022-12-07T08:30:29;5.20;1.00
8565;DHT22;4320;51.498;6.556;2022-12-07T08:32:55;5.20;1.00
8565;DHT22;4320;51.498;6.556;2022-12-07T08:35:21;5.20;1.00
8565;DHT22;4320;51.498;6.556;2022-12-07T08:37:47;5.10;1.00
8565;DHT22;4320;51.498;6.556;2022-12-07T08:40:13;5.10;1.00
8565;DHT22;4320;51.498;6.556;2022-12-07T08:42:43;5.20;1.00
8565;DHT22;4320;51.498;6.556;2022-12-07T08:45:12;5.10;1.00
8565;DHT22;4320;51.498;6.556;2022-12-07T08:47:41;5.00;1.00
8565;DHT22;4320;51.498;6.556;2022-12-07T08:50:09;5.00;1.00
8565;DHT22;4320;51.498;6.556;2022-12-07T08:52:37;5.10;1.00
8565;DHT22;4320;51.498;6.556;2022-12-07T08:55:03;5.30;1.00
8565;DHT22;4320;51.498;6.556;2022-12-07T08:57:30;5.40;1.00
8565;DHT22;4320;51.498;6.556;2022-12-07T08:59:56;5.50;1.00
8565;DHT22;4320;51.498;6.556;2022-12-07T09:02:22;5.60;1.00
8565;DHT22;4320;51.498;6.556;2022-12-07T09:04:48;5.60;1.00
8565;DHT22;4320;51.498;6.556;2022-12-07T09:07:14;5.70;1.00
8565;DHT22;4320;51.498;6.556;2022-12-07T09:09:39;5.70;1.00
8565;DHT22;4320;51.498;6.556;2022-12-07T09:12:05;5.70;1.00
8565;DHT22;4320;51.498;6.556;2022-12-07T09:14:30;5.60;1.00
8565;DHT22;4320;51.498;6.556;2022-12-07T09:17:08;5.50;1.00
8565;DHT22;4320;51.498;6.556;2022-12-07T09:19:34;5.50;1.00
8565;DHT22;4320;51.498;6.556;2022-12-07T09:21:59;5.50;1.00
8565;DHT22;4320;51.498;6.556;2022-12-07T09:24:25;5.50;1.00
8565;DHT22;4320;51.498;6.556;2022-12-07T09:26:51;5.50;1.00
8565;DHT22;4320;51.498;6.556;2022-12-07T09:29:16;5.60;1.00
8565;DHT22;4320;51.498;6.556;2022-12-07T09:31:42;5.60;1.00
8565;DHT22;4320;51.498;6.556;2022-12-07T09:34:07;5.70;1.00
8565;DHT22;4320;51.498;6.556;2022-12-07T09:36:33;5.70;1.00
8565;DHT22;4320;51.498;6.556;2022-12-07T09:38:59;5.80;1.00
8565;DHT22;4320;51.498;6.556;2022-12-07T09:41:27;5.90;1.00
8565;DHT22;4320;51.498;6.556;2022-12-07T09:43:58;5.80;1.00
8565;DHT22;4320;51.498;6.556;2022-12-07T09:46:26;5.80;1.00
8565;DHT22;4320;51.498;6.556;2022-12-07T09:48:51;5.90;1.00
8565;DHT22;4320;51.498;6.556;2022-12-07T09:51:20;5.90;1.00
8565;DHT22;4320;51.498;6.556;2022-12-07T09:53:46;6.00;1.00
8565;DHT22;4320;51.498;6.556;2022-12-07T09:56:17;6.10;1.00
8565;DHT22;4320;51.498;6.556;2022-12-07T09:58:44;6.20;1.00
8565;DHT22;4320;51.498;6.556;2022-12-07T10:03:40;7.80;99.90
8565;DHT22;4320;51.498;6.556;2022-12-07T10:06:09;7.80;99.90
8565;DHT22;4320;51.498;6.556;2022-12-07T10:08:36;7.60;99.90
8565;DHT22;4320;51.498;6.556;2022-12-07T10:11:02;7.60;99.90
8565;DHT22;4320;51.498;6.556;2022-12-07T10:13:36;7.60;99.90
8565;DHT22;4320;51.498;6.556;2022-12-07T10:16:02;7.50;99.90
8565;DHT22;4320;51.498;6.556;2022-12-07T10:18:35;7.60;99.90
8565;DHT22;4320;51.498;6.556;2022-12-07T10:23:35;8.70;99.90
8565;DHT22;4320;51.498;6.556;2022-12-07T10:26:35;9.20;99.90
8565;DHT22;4320;51.498;6.556;2022-12-07T10:29:16;9.30;99.90
8565;DHT22;4320;51.498;6.556;2022-12-07T10:31:43;9.40;99.90
8565;DHT22;4320;51.498;6.556;2022-12-07T10:34:25;9.60;99.90
8565;DHT22;4320;51.498;6.556;2022-12-07T10:36:53;9.50;99.90
8565;DHT22;4320;51.498;6.556;2022-12-07T10:39:21;9.10;99.90
8565;DHT22;4320;51.498;6.556;2022-12-07T10:41:58;8.70;99.90
8565;DHT22;4320;51.498;6.556;2022-12-07T10:44:26;8.40;99.90
8565;DHT22;4320;51.498;6.556;2022-12-07T11:05:18;7.90;99.90
8565;DHT22;4320;51.498;6.556;2022-12-07T11:07:52;7.90;99.90
8565;DHT22;4320;51.498;6.556;2022-12-07T11:13:22;7.90;99.90
8565;DHT22;4320;51.498;6.556;2022-12-07T11:18:40;7.70;99.90
8565;DHT22;4320;51.498;6.556;2022-12-07T11:24:11;7.90;99.90
8565;DHT22;4320;51.498;6.556;2022-12-07T11:27:19;7.90;99.90
8565;DHT22;4320;51.498;6.556;2022-12-07T11:30:13;8.00;99.90
8565;DHT22;4320;51.498;6.556;2022-12-07T11:37:42;7.90;99.90
8565;DHT22;4320;51.498;6.556;2022-12-07T11:40:24;8.10;99.90
8565;DHT22;4320;51.498;6.556;2022-12-07T11:45:33;8.10;99.90
8565;DHT22;4320;51.498;6.556;2022-12-07T11:48:17;8.00;99.90
8565;DHT22;4320;51.498;6.556;2022-12-07T11:50:51;8.00;99.90
8565;DHT22;4320;51.498;6.556;2022-12-07T11:53:23;7.90;99.90
8565;DHT22;4320;51.498;6.556;2022-12-07T11:56:12;7.90;99.90
8565;DHT22;4320;51.498;6.556;2022-12-07T12:06:35;7.70;99.90
8565;DHT22;4320;51.498;6.556;2022-12-07T12:09:17;7.70;99.90
8565;DHT22;4320;51.498;6.556;2022-12-07T12:23:36;7.70;99.90
8565;DHT22;4320;51.498;6.556;2022-12-07T12:26:05;7.80;99.90
8565;DHT22;4320;51.498;6.556;2022-12-07T12:31:28;7.90;99.90
8565;DHT22;4320;51.498;6.556;2022-12-07T12:33:57;7.90;99.90
8565;DHT22;4320;51.498;6.556;2022-12-07T12:36:42;7.80;99.90
8565;DHT22;4320;51.498;6.556;2022-12-07T12:47:01;7.90;99.90
8565;DHT22;4320;51.498;6.556;2022-12-07T12:49:38;7.90;99.90
8565;DHT22;4320;51.498;6.556;2022-12-07T12:57:34;7.80;99.90
8565;DHT22;4320;51.498;6.556;2022-12-07T13:00:21;7.70;99.90
8565;DHT22;4320;51.498;6.556;2022-12-07T13:02:53;7.80;99.90
8565;DHT22;4320;51.498;6.556;2022-12-07T13:05:27;7.80;99.90
8565;DHT22;4320;51.498;6.556;2022-12-07T13:10:43;7.80;99.90
8565;DHT22;4320;51.498;6.556;2022-12-07T13:29:15;7.80;99.90
8565;DHT22;4320;51.498;6.556;2022-12-07T13:34:40;7.80;99.90
8565;DHT22;4320;51.498;6.556;2022-12-07T13:37:30;7.80;99.90
8565;DHT22;4320;51.498;6.556;2022-12-07T13:39:59;7.70;99.90
8565;DHT22;4320;51.498;6.556;2022-12-07T13:44:52;7.80;99.90
8565;DHT22;4320;51.498;6.556;2022-12-07T13:50:23;7.70;99.90
8565;DHT22;4320;51.498;6.556;2022-12-07T13:52:50;7.80;99.90
8565;DHT22;4320;51.498;6.556;2022-12-07T13:55:16;7.80;99.90
8565;DHT22;4320;51.498;6.556;2022-12-07T13:57:44;7.90;99.90
8565;DHT22;4320;51.498;6.556;2022-12-07T14:00:29;7.90;99.90
8565;DHT22;4320;51.498;6.556;2022-12-07T14:03:01;7.90;99.90
8565;DHT22;4320;51.498;6.556;2022-12-07T14:05:32;7.80;99.90
8565;DHT22;4320;51.498;6.556;2022-12-07T14:07:59;7.80;99.90
8565;DHT22;4320;51.498;6.556;2022-12-07T14:10:31;7.70;99.90
8565;DHT22;4320;51.498;6.556;2022-12-07T14:12:58;7.60;99.90
8565;DHT22;4320;51.498;6.556;2022-12-07T14:15:28;7.50;99.90
8565;DHT22;4320;51.498;6.556;2022-12-07T14:17:55;7.50;99.90
8565;DHT22;4320;51.498;6.556;2022-12-07T14:20:32;7.50;99.90
8565;DHT22;4320;51.498;6.556;2022-12-07T14:22:58;7.50;99.90
8565;DHT22;4320;51.498;6.556;2022-12-07T14:25:27;7.40;99.90
8565;DHT22;4320;51.498;6.556;2022-12-07T14:27:58;7.40;99.90
8565;DHT22;4320;51.498;6.556;2022-12-07T14:30:27;7.30;99.90
8565;DHT22;4320;51.498;6.556;2022-12-07T14:32:57;7.20;99.90
8565;DHT22;4320;51.498;6.556;2022-12-07T14:35:22;7.20;99.90
8565;DHT22;4320;51.498;6.556;2022-12-07T14:37:49;7.10;99.90
8565;DHT22;4320;51.498;6.556;2022-12-07T14:40:21;7.10;99.90
8565;DHT22;4320;51.498;6.556;2022-12-07T14:43:10;7.10;99.90
8565;DHT22;4320;51.498;6.556;2022-12-07T14:45:35;7.00;99.90
8565;DHT22;4320;51.498;6.556;2022-12-07T14:48:00;6.90;99.90
8565;DHT22;4320;51.498;6.556;2022-12-07T14:50:26;6.90;99.90
8565;DHT22;4320;51.498;6.556;2022-12-07T14:52:55;6.90;99.90
8565;DHT22;4320;51.498;6.556;2022-12-07T14:55:27;6.90;99.90
8565;DHT22;4320;51.498;6.556;2022-12-07T14:57:53;6.90;99.90
8565;DHT22;4320;51.498;6.556;2022-12-07T15:00:21;6.80;99.90
8565;DHT22;4320;51.498;6.556;2022-12-07T15:02:47;6.80;99.90
8565;DHT22;4320;51.498;6.556;2022-12-07T15:05:14;6.70;99.90
8565;DHT22;4320;51.498;6.556;2022-12-07T15:07:40;6.70;99.90
8565;DHT22;4320;51.498;6.556;2022-12-07T15:10:08;6.70;99.90
8565;DHT22;4320;51.498;6.556;2022-12-07T15:12:38;6.70;99.90
8565;DHT22;4320;51.498;6.556;2022-12-07T15:15:04;6.70;99.90
8565;DHT22;4320;51.498;6.556;2022-12-07T15:17:30;6.70;99.90
8565;DHT22;4320;51.498;6.556;2022-12-07T15:19:55;6.70;99.90
8565;DHT22;4320;51.498;6.556;2022-12-07T15:22:21;6.60;99.90
8565;DHT22;4320;51.498;6.556;2022-12-07T15:24:46;6.60;99.90
8565;DHT22;4320;51.498;6.556;2022-12-07T15:27:12;6.60;99.90
8565;DHT22;4320;51.498;6.556;2022-12-07T15:29:38;6.60;99.90
8565;DHT22;4320;51.498;6.556;2022-12-07T15:32:03;6.60;99.90
8565;DHT22;4320;51.498;6.556;2022-12-07T15:34:29;6.60;99.90
8565;DHT22;4320;51.498;6.556;2022-12-07T15:36:57;6.50;99.90
8565;DHT22;4320;51.498;6.556;2022-12-07T15:39:22;6.50;99.90
8565;DHT22;4320;51.498;6.556;2022-12-07T15:41:48;6.50;99.90
8565;DHT22;4320;51.498;6.556;2022-12-07T15:44:14;6.50;99.90
8565;DHT22;4320;51.498;6.556;2022-12-07T15:46:59;6.50;99.90
8565;DHT22;4320;51.498;6.556;2022-12-07T15:49:25;6.50;99.90
8565;DHT22;4320;51.498;6.556;2022-12-07T15:51:51;6.50;99.90
8565;DHT22;4320;51.498;6.556;2022-12-07T15:56:47;6.60;99.90
8565;DHT22;4320;51.498;6.556;2022-12-07T15:59:13;6.60;99.90
8565;DHT22;4320;51.498;6.556;2022-12-07T16:01:39;6.60;99.90
8565;DHT22;4320;51.498;6.556;2022-12-07T16:04:04;6.60;99.90
8565;DHT22;4320;51.498;6.556;2022-12-07T16:06:30;6.60;99.90
8565;DHT22;4320;51.498;6.556;2022-12-07T16:08:56;6.70;99.90
8565;DHT22;4320;51.498;6.556;2022-12-07T16:11:22;6.60;99.90
8565;DHT22;4320;51.498;6.556;2022-12-07T16:13:48;6.60;99.90
8565;DHT22;4320;51.498;6.556;2022-12-07T16:16:15;6.70;99.90
8565;DHT22;4320;51.498;6.556;2022-12-07T16:18:42;6.60;99.90
8565;DHT22;4320;51.498;6.556;2022-12-07T16:21:08;6.70;99.90
8565;DHT22;4320;51.498;6.556;2022-12-07T16:23:34;6.70;99.90
8565;DHT22;4320;51.498;6.556;2022-12-07T16:26:13;6.60;99.90
8565;DHT22;4320;51.498;6.556;2022-12-07T16:28:39;6.60;99.90
8565;DHT22;4320;51.498;6.556;2022-12-07T16:31:08;6.70;99.90
8565;DHT22;4320;51.498;6.556;2022-12-07T16:33:35;6.60;99.90
8565;DHT22;4320;51.498;6.556;2022-12-07T16:36:02;6.70;99.90
8565;DHT22;4320;51.498;6.556;2022-12-07T16:38:28;6.70;99.90
8565;DHT22;4320;51.498;6.556;2022-12-07T16:40:54;6.60;99.90
8565;DHT22;4320;51.498;6.556;2022-12-07T16:43:20;6.60;99.90
8565;DHT22;4320;51.498;6.556;2022-12-07T16:45:46;6.50;99.90
8565;DHT22;4320;51.498;6.556;2022-12-07T16:48:13;6.50;99.90
8565;DHT22;4320;51.498;6.556;2022-12-07T16:50:39;6.50;99.90
8565;DHT22;4320;51.498;6.556;2022-12-07T16:53:07;6.50;99.90
8565;DHT22;4320;51.498;6.556;2022-12-07T16:55:36;6.40;99.90
8565;DHT22;4320;51.498;6.556;2022-12-07T16:58:02;6.40;99.90
8565;DHT22;4320;51.498;6.556;2022-12-07T17:00:27;6.40;99.90
8565;DHT22;4320;51.498;6.556;2022-12-07T17:02:53;6.40;99.90
8565;DHT22;4320;51.498;6.556;2022-12-07T17:05:20;6.40;99.90
8565;DHT22;4320;51.498;6.556;2022-12-07T17:07:46;6.30;99.90
8565;DHT22;4320;51.498;6.556;2022-12-07T17:10:12;6.30;99.90
8565;DHT22;4320;51.498;6.556;2022-12-07T17:12:37;6.20;99.90
8565;DHT22;4320;51.498;6.556;2022-12-07T17:15:04;6.10;99.90
8565;DHT22;4320;51.498;6.556;2022-12-07T17:17:53;6.00;99.90
8565;DHT22;4320;51.498;6.556;2022-12-07T17:20:20;5.90;99.90
8565;DHT22;4320;51.498;6.556;2022-12-07T17:22:46;6.10;99.90
8565;DHT22;4320;51.498;6.556;2022-12-07T17:25:12;6.20;99.90
8565;DHT22;4320;51.498;6.556;2022-12-07T17:27:38;6.20;99.90
8565;DHT22;4320;51.498;6.556;2022-12-07T17:30:05;6.30;99.90
8565;DHT22;4320;51.498;6.556;2022-12-07T17:32:31;6.30;99.90
8565;DHT22;4320;51.498;6.556;2022-12-07T17:34:56;6.20;99.90
8565;DHT22;4320;51.498;6.556;2022-12-07T17:37:22;6.10;99.90
8565;DHT22;4320;51.498;6.556;2022-12-07T17:39:48;6.20;99.90
8565;DHT22;4320;51.498;6.556;2022-12-07T17:42:14;6.30;99.90
8565;DHT22;4320;51.498;6.556;2022-12-07T17:44:58;6.30;99.90
8565;DHT22;4320;51.498;6.556;2022-12-07T17:47:24;6.30;99.90
8565;DHT22;4320;51.498;6.556;2022-12-07T17:49:49;6.30;99.90
8565;DHT22;4320;51.498;6.556;2022-12-07T17:52:15;6.30;99.90
8565;DHT22;4320;51.498;6.556;2022-12-07T17:54:59;6.20;99.90
8565;DHT22;4320;51.498;6.556;2022-12-07T17:57:25;6.10;99.90
8565;DHT22;4320;51.498;6.556;2022-12-07T17:59:50;6.10;99.90
8565;DHT22;4320;51.498;6.556;2022-12-07T18:02:17;6.10;99.90
8565;DHT22;4320;51.498;6.556;2022-12-07T18:04:43;6.10;99.90
8565;DHT22;4320;51.498;6.556;2022-12-07T18:07:10;6.10;99.90
8565;DHT22;4320;51.498;6.556;2022-12-07T18:09:35;6.10;99.90
8565;DHT22;4320;51.498;6.556;2022-12-07T18:12:02;6.10;99.90
8565;DHT22;4320;51.498;6.556;2022-12-07T18:14:28;6.10;99.90
8565;DHT22;4320;51.498;6.556;2022-12-07T18:16:53;6.10;99.90
8565;DHT22;4320;51.498;6.556;2022-12-07T18:19:19;6.10;99.90
8565;DHT22;4320;51.498;6.556;2022-12-07T18:21:45;6.00;99.90
8565;DHT22;4320;51.498;6.556;2022-12-07T18:24:13;6.00;99.90
8565;DHT22;4320;51.498;6.556;2022-12-07T18:26:40;6.00;99.90
8565;DHT22;4320;51.498;6.556;2022-12-07T18:29:07;5.90;99.90
8565;DHT22;4320;51.498;6.556;2022-12-07T18:31:34;5.90;1.00
8565;DHT22;4320;51.498;6.556;2022-12-07T18:34:02;6.00;1.00
8565;DHT22;4320;51.498;6.556;2022-12-07T18:36:29;6.10;1.00
8565;DHT22;4320;51.498;6.556;2022-12-07T18:38:55;6.10;1.00
8565;DHT22;4320;51.498;6.556;2022-12-07T18:41:21;6.10;1.00
8565;DHT22;4320;51.498;6.556;2022-12-07T18:43:46;6.10;1.00
8565;DHT22;4320;51.498;6.556;2022-12-07T18:46:14;6.10;1.00
8565;DHT22;4320;51.498;6.556;2022-12-07T18:48:40;6.20;1.00
8565;DHT22;4320;51.498;6.556;2022-12-07T18:51:07;6.10;1.00
8565;DHT22;4320;51.498;6.556;2022-12-07T18:53:34;6.10;1.00
8565;DHT22;4320;51.498;6.556;2022-12-07T18:56:04;5.90;1.00
8565;DHT22;4320;51.498;6.556;2022-12-07T18:58:30;5.90;1.00
8565;DHT22;4320;51.498;6.556;2022-12-07T19:00:56;6.00;1.00